Time;durP1;ratioP1;P1;durP2;ratioP2;P2;SDS_P1;SDS_P2;PMS_P1;PMS_P2;Temp;Humidity;BMP_temperature;BMP_pressure;BME280_temperature;BME280_humidity;BME280_pressure;Samples;Min_cycle;Max_cycle;Signal;HPM_P1;HPM_P2
2022/10/30 00:00:27;;;;;;;3.47;1.03;;;;;;;6.84;84.27;99566.19;4878191;29;20033;-72
2022/10/30 00:02:53;;;;;;;1.00;0.80;;;;;;;6.83;83.35;99593.66;4878310;29;20489;-72
2022/10/30 00:05:19;;;;;;;5.37;1.00;;;;;;;6.75;82.40;99596.31;4881315;29;20029;-75
2022/10/30 00:07:46;;;;;;;1.00;0.90;;;;;;;6.61;82.89;99581.94;4884750;29;20149;-73
2022/10/30 00:10:12;;;;;;;1.10;1.00;;;;;;;6.53;82.14;99590.69;4886484;29;20120;-73
2022/10/30 00:12:38;;;;;;;1.00;0.90;;;;;;;6.56;81.89;99588.72;4887906;29;20041;-74
2022/10/30 00:15:05;;;;;;;2.47;1.10;;;;;;;6.48;81.15;99577.16;4885334;29;20037;-73
2022/10/30 00:17:31;;;;;;;1.40;1.27;;;;;;;6.47;79.56;99577.31;4884788;29;20029;-73
2022/10/30 00:19:57;;;;;;;1.50;0.93;;;;;;;6.57;79.04;99622.09;4867352;29;20033;-73
2022/10/30 00:22:23;;;;;;;1.23;1.13;;;;;;;6.45;79.29;99603.09;4884286;29;20032;-73
2022/10/30 00:24:48;;;;;;;1.10;1.00;;;;;;;6.38;79.19;99597.66;4867398;29;20483;-74
2022/10/30 00:27:14;;;;;;;1.77;1.00;;;;;;;6.35;79.21;99574.16;4882728;29;20057;-74
2022/10/30 00:29:39;;;;;;;1.00;0.90;;;;;;;6.28;79.64;99582.91;4883914;29;20061;-73
2022/10/30 00:32:05;;;;;;;1.10;1.00;;;;;;;5.99;79.13;99591.28;4884282;29;20060;-73
2022/10/30 00:34:30;;;;;;;5.50;1.30;;;;;;;6.15;79.36;99580.75;4884134;29;20029;-73
2022/10/30 00:36:56;;;;;;;1.90;0.90;;;;;;;6.10;78.54;99575.13;4884002;29;20481;-73
2022/10/30 00:39:21;;;;;;;1.23;1.07;;;;;;;6.12;79.21;99596.94;4883987;29;20180;-73
2022/10/30 00:41:47;;;;;;;1.37;1.00;;;;;;;6.07;79.17;99578.94;4883908;29;20037;-73
2022/10/30 00:44:45;;;;;;;1.57;1.47;;;;;;;6.02;79.43;99585.66;4883831;29;20116;-73
2022/10/30 00:47:17;;;;;;;1.10;1.00;;;;;;;5.87;79.45;99556.38;4884329;29;20032;-73
2022/10/30 00:49:56;;;;;;;3.13;1.30;;;;;;;5.92;79.15;99585.00;4884248;29;20425;-72
2022/10/30 00:52:25;;;;;;;1.23;1.13;;;;;;;5.89;79.86;99597.53;4884663;29;20025;-72
2022/10/30 00:54:51;;;;;;;;;;;;;;;5.87;79.88;99599.50;4884119;29;20414;-72
2022/10/30 00:57:17;;;;;;;1.23;1.13;;;;;;;5.79;79.39;99610.03;4884774;29;19919;-73
2022/10/30 00:59:44;;;;;;;1.10;1.00;;;;;;;5.80;80.23;99605.59;4884468;29;20049;-73
2022/10/30 01:02:10;;;;;;;1.87;1.10;;;;;;;5.79;80.23;99593.34;4884774;29;20084;-72
2022/10/30 01:04:38;;;;;;;2.20;0.90;;;;;;;5.81;80.10;99626.56;4868864;29;20056;-72
2022/10/30 01:07:09;;;;;;;0.98;0.88;;;;;;;5.86;79.94;99612.84;4885517;29;20376;-72
2022/10/30 01:09:37;;;;;;;0.80;0.80;;;;;;;5.83;79.63;99621.94;4885442;29;20029;-72
2022/10/30 01:12:03;;;;;;;1.23;1.03;;;;;;;5.78;79.24;99631.31;4885697;29;20493;-72
2022/10/30 01:14:29;;;;;;;1.50;1.40;;;;;;;5.72;79.69;99597.59;4884456;29;20037;-73
2022/10/30 01:17:00;;;;;;;2.37;1.20;;;;;;;5.78;80.75;99620.75;4881321;29;20096;-72
2022/10/30 01:19:43;;;;;;;1.33;0.87;;;;;;;5.69;79.69;99625.16;4880988;29;20093;-72
2022/10/30 01:22:26;;;;;;;0.90;0.90;;;;;;;5.73;79.20;99639.72;4880869;29;20124;-72
2022/10/30 01:25:10;;;;;;;0.90;0.90;;;;;;;5.73;80.21;99630.97;4881004;29;20029;-72
2022/10/30 01:27:57;;;;;;;1.30;0.87;;;;;;;5.74;80.25;99625.50;4880766;29;20045;-73
2022/10/30 01:30:37;;;;;;;1.33;1.20;;;;;;;5.82;81.28;99628.22;4880653;29;20714;-73
2022/10/30 01:33:20;;;;;;;0.93;0.90;;;;;;;5.82;80.30;99622.94;4881086;29;20071;-74
2022/10/30 01:36:08;;;;;;;1.30;1.10;;;;;;;5.94;79.49;99635.88;4880533;29;20045;-73
2022/10/30 01:38:49;;;;;;;1.35;1.25;;;;;;;5.99;78.27;99649.41;4880649;29;20036;-72
2022/10/30 01:41:15;;;;;;;1.77;1.10;;;;;;;6.04;78.19;99641.84;4879086;29;20426;-73
2022/10/30 01:43:43;;;;;;;1.50;1.40;;;;;;;6.08;77.77;99637.91;4863733;29;20028;-73
2022/10/30 01:46:51;;;;;;;3.10;1.10;;;;;;;6.14;77.75;99653.94;4880097;29;20397;-73
2022/10/30 01:49:23;;;;;;;1.40;0.77;;;;;;;6.15;77.88;99649.50;4867250;29;20573;-73
2022/10/30 01:52:10;;;;;;;1.93;0.80;;;;;;;6.18;78.47;99635.94;4880580;29;20025;-73
2022/10/30 01:54:52;;;;;;;1.10;1.00;;;;;;;6.17;78.13;99653.63;4880628;29;20132;-72
2022/10/30 01:57:45;;;;;;;2.50;1.10;;;;;;;6.17;76.56;99663.38;4880674;29;20036;-72
2022/10/30 02:00:14;;;;;;;1.33;0.87;;;;;;;6.16;77.07;99648.50;4880482;29;20491;-73
2022/10/30 02:02:39;;;;;;;;;;;;;;;6.16;77.02;99659.91;4881199;29;20033;-72
2022/10/30 02:05:07;;;;;;;0.90;0.80;;;;;;;6.14;76.42;99642.53;4881234;29;19912;-71
2022/10/30 02:07:35;;;;;;;1.00;1.00;;;;;;;5.99;76.42;99628.28;4882135;29;20135;-72
2022/10/30 02:10:04;;;;;;;1.83;1.17;;;;;;;6.16;76.33;99656.44;4881158;29;20052;-73
2022/10/30 02:12:30;;;;;;;1.37;1.27;;;;;;;6.15;77.01;99658.25;4881270;29;20037;-74
2022/10/30 02:15:15;;;;;;;0.90;0.90;;;;;;;6.07;76.22;99662.66;4880147;29;20020;-72
2022/10/30 02:17:41;;;;;;;2.00;0.80;;;;;;;6.09;76.51;99652.78;4879495;29;20036;-75
2022/10/30 02:20:13;;;;;;;1.57;1.00;;;;;;;6.07;76.83;99660.00;4879401;29;20381;-73
2022/10/30 02:22:38;;;;;;;1.17;1.07;;;;;;;6.08;75.17;99659.06;4879787;29;20466;-73
2022/10/30 02:25:04;;;;;;;0.83;0.80;;;;;;;6.07;75.16;99657.38;4879651;29;20096;-72
2022/10/30 02:27:30;;;;;;;1.27;1.17;;;;;;;5.97;76.39;99654.88;4879553;29;20072;-72
2022/10/30 02:29:55;;;;;;;0.93;0.93;;;;;;;5.98;76.76;99671.56;4879604;29;20088;-72
2022/10/30 02:32:21;;;;;;;0.87;0.80;;;;;;;5.97;77.38;99662.81;4879228;29;20073;-73
2022/10/30 02:34:46;;;;;;;1.10;0.97;;;;;;;5.94;77.53;99657.00;4879100;29;20033;-72
2022/10/30 02:37:12;;;;;;;4.17;1.13;;;;;;;5.98;77.87;99668.91;4880089;29;20503;-73
2022/10/30 02:39:37;;;;;;;1.57;1.20;;;;;;;5.98;78.45;99666.25;4878371;29;20494;-73
2022/10/30 02:42:04;;;;;;;2.43;1.20;;;;;;;5.93;76.86;99682.59;4879356;29;20466;-73
2022/10/30 02:44:30;;;;;;;1.13;0.90;;;;;;;5.84;74.55;99688.81;4879389;29;20373;-74
2022/10/30 02:46:57;;;;;;;2.03;0.93;;;;;;;5.79;73.44;99676.09;4879515;29;20109;-73
2022/10/30 02:49:22;;;;;;;1.50;0.80;;;;;;;5.82;73.24;99680.22;4880333;29;20033;-74
2022/10/30 02:51:48;;;;;;;1.57;1.33;;;;;;;5.81;74.67;99678.56;4881316;29;20377;-74
2022/10/30 02:54:13;;;;;;;1.50;1.40;;;;;;;5.90;73.94;99689.03;4880398;29;20025;-73
2022/10/30 02:56:39;;;;;;;1.03;1.00;;;;;;;5.90;74.02;99682.94;4880386;29;20502;-73
2022/10/30 02:59:05;;;;;;;0.90;0.90;;;;;;;5.88;75.58;99680.41;4879614;29;20037;-71
2022/10/30 03:01:30;;;;;;;1.30;0.90;;;;;;;5.78;73.55;99674.44;4894148;29;20064;-72
2022/10/30 03:03:56;;;;;;;0.97;0.97;;;;;;;5.75;73.35;99684.47;4889493;29;20053;-73
2022/10/30 03:06:22;;;;;;;1.53;1.00;;;;;;;5.70;73.43;99682.31;4883514;29;20033;-73
2022/10/30 03:08:47;;;;;;;0.90;0.83;;;;;;;5.69;72.77;99685.94;4864974;29;20462;-73
2022/10/30 03:11:16;;;;;;;1.27;0.83;;;;;;;5.61;72.87;99704.38;4879823;29;20053;-76
2022/10/30 03:13:44;;;;;;;1.30;1.00;;;;;;;5.53;72.98;99691.13;4861994;29;20418;-73
2022/10/30 03:16:12;;;;;;;1.10;1.00;;;;;;;5.52;71.60;99682.38;4878778;29;20477;-75
2022/10/30 03:18:38;;;;;;;1.83;1.48;;;;;;;5.45;73.34;99707.75;4878611;29;20522;-72
2022/10/30 03:21:05;;;;;;;1.10;1.00;;;;;;;5.50;72.67;99726.63;4879098;29;20028;-74
2022/10/30 03:23:32;;;;;;;2.73;1.17;;;;;;;5.48;72.96;99703.94;4878836;29;20040;-74
2022/10/30 03:25:58;;;;;;;2.30;1.30;;;;;;;5.53;71.77;99706.97;4879058;29;20458;-73
2022/10/30 03:28:26;;;;;;;1.33;0.90;;;;;;;5.56;72.57;99706.66;4861873;29;20039;-73
2022/10/30 03:30:57;;;;;;;1.75;0.95;;;;;;;5.59;73.58;99716.91;4877288;29;20037;-74
2022/10/30 03:33:23;;;;;;;1.43;1.00;;;;;;;5.55;72.97;99705.00;4878552;29;20097;-74
2022/10/30 03:35:48;;;;;;;1.43;1.00;;;;;;;5.52;72.96;99716.72;4878270;29;20116;-74
2022/10/30 03:38:14;;;;;;;1.87;1.37;;;;;;;5.47;73.61;99712.88;4861969;29;20032;-72
2022/10/30 03:40:40;;;;;;;2.00;0.87;;;;;;;5.47;72.57;99723.44;4860981;29;20029;-72
2022/10/30 03:43:05;;;;;;;3.47;1.17;;;;;;;5.28;73.54;99727.94;4878422;29;20162;-72
2022/10/30 03:45:32;;;;;;;2.63;1.13;;;;;;;5.22;71.37;99749.69;4878217;29;20111;-74
2022/10/30 03:48:04;;;;;;;1.30;1.20;;;;;;;5.22;71.27;99741.75;4861874;29;20057;-74
2022/10/30 03:50:30;;;;;;;0.87;0.87;;;;;;;5.14;70.55;99740.84;4878414;29;20120;-74
2022/10/30 03:52:56;;;;;;;4.10;1.17;;;;;;;5.02;69.65;99742.06;4878280;29;20286;-73
2022/10/30 03:55:22;;;;;;;1.70;1.20;;;;;;;4.91;69.94;99733.38;4878618;29;20377;-71
2022/10/30 03:57:48;;;;;;;1.50;1.23;;;;;;;4.76;68.56;99728.81;4877948;29;20039;-74
2022/10/30 04:00:14;;;;;;;2.03;1.60;;;;;;;4.68;68.94;99728.72;4878039;29;20041;-72
2022/10/30 04:02:50;;;;;;;2.53;1.10;;;;;;;4.88;69.32;99770.63;4878476;29;20037;-73
2022/10/30 04:05:19;;;;;;;1.77;0.80;;;;;;;4.89;68.64;99750.34;4878517;29;20270;-73
2022/10/30 04:07:46;;;;;;;2.63;1.03;;;;;;;4.94;68.99;99769.22;4877948;29;20249;-74
2022/10/30 04:10:14;;;;;;;1.47;1.00;;;;;;;5.02;68.15;99785.13;4861033;29;20309;-73
2022/10/30 04:12:39;;;;;;;3.13;1.33;;;;;;;4.86;71.62;99804.25;4877788;29;20281;-72
2022/10/30 04:15:07;;;;;;;3.23;1.43;;;;;;;4.25;80.25;99810.13;4877927;29;20279;-74
2022/10/30 04:17:32;;;;;;;2.13;1.43;;;;;;;3.84;84.67;99837.72;4878211;29;20199;-72
2022/10/30 04:19:58;;;;;;;3.00;1.67;;;;;;;3.33;90.48;99846.78;4877868;29;20344;-72
2022/10/30 04:22:23;;;;;;;1.87;1.30;;;;;;;2.99;93.53;99829.75;4877976;29;20511;-74
2022/10/30 04:24:49;;;;;;;1.37;1.27;;;;;;;2.77;95.26;99852.66;4878128;29;20101;-72
2022/10/30 04:27:15;;;;;;;2.83;1.33;;;;;;;2.68;97.07;99836.88;4877796;29;20033;-72
2022/10/30 04:29:43;;;;;;;3.33;1.33;;;;;;;2.59;97.25;99830.59;4877897;29;20381;-72
2022/10/30 04:32:09;;;;;;;1.85;1.17;;;;;;;2.54;96.94;99834.63;4877993;29;20029;-73
2022/10/30 04:34:35;;;;;;;2.63;1.60;;;;;;;2.51;96.50;99843.59;4878088;29;20124;-72
2022/10/30 04:37:01;;;;;;;2.80;1.23;;;;;;;2.46;94.88;99833.50;4877837;29;20052;-72
2022/10/30 04:39:26;;;;;;;2.30;1.10;;;;;;;2.52;94.33;99833.91;4877671;29;20151;-73
2022/10/30 04:41:51;;;;;;;1.80;1.03;;;;;;;2.53;93.78;99838.22;4877725;29;20033;-73
2022/10/30 04:44:17;;;;;;;2.03;1.10;;;;;;;2.59;93.40;99853.44;4877957;29;20529;-72
2022/10/30 04:46:42;;;;;;;3.43;1.37;;;;;;;2.54;93.92;99838.06;4877844;29;20492;-72
2022/10/30 04:49:09;;;;;;;1.53;1.30;;;;;;;2.59;94.67;99848.19;4877596;29;20033;-71
2022/10/30 04:51:34;;;;;;;2.20;1.10;;;;;;;2.56;94.66;99841.41;4879250;29;20265;-73
2022/10/30 04:54:00;;;;;;;3.70;1.23;;;;;;;2.53;94.29;99833.78;4879968;29;20029;-73
2022/10/30 04:56:25;;;;;;;3.00;1.03;;;;;;;2.53;93.69;99833.78;4881155;29;20025;-72
2022/10/30 04:58:52;;;;;;;1.20;1.10;;;;;;;2.55;93.87;99829.22;4880782;29;20452;-73
2022/10/30 05:01:17;;;;;;;1.67;1.40;;;;;;;2.58;93.79;99830.75;4881245;29;20037;-73
2022/10/30 05:03:43;;;;;;;1.93;1.40;;;;;;;2.62;91.77;99854.03;4881034;29;20269;-71
2022/10/30 05:06:23;;;;;;;3.37;1.10;;;;;;;2.66;91.11;99834.38;4880981;29;20040;-72
2022/10/30 05:08:50;;;;;;;1.47;1.37;;;;;;;2.65;90.88;99842.41;4880663;29;20029;-72
2022/10/30 05:11:16;;;;;;;2.27;1.60;;;;;;;2.67;90.44;99832.59;4881051;29;20289;-72
2022/10/30 05:13:42;;;;;;;1.30;1.20;;;;;;;2.68;89.15;99831.63;4880799;29;20286;-72
2022/10/30 05:16:07;;;;;;;1.87;1.23;;;;;;;2.58;88.76;99821.06;4880768;29;20318;-73
2022/10/30 05:18:33;;;;;;;2.20;1.57;;;;;;;2.76;85.88;99840.50;4880657;29;20033;-71
2022/10/30 05:20:58;;;;;;;4.10;1.33;;;;;;;2.80;84.16;99846.31;4880764;29;20033;-73
2022/10/30 05:23:24;;;;;;;1.90;1.07;;;;;;;2.90;81.99;99841.91;4880358;29;20033;-72
2022/10/30 05:25:49;;;;;;;3.67;1.20;;;;;;;2.92;80.70;99844.41;4880898;29;20079;-72
2022/10/30 05:28:15;;;;;;;2.10;1.73;;;;;;;3.06;80.22;99865.03;4880862;29;20025;-71
2022/10/30 05:30:41;;;;;;;2.00;1.80;;;;;;;3.10;78.64;99872.53;4880665;29;20063;-71
2022/10/30 05:33:09;;;;;;;3.80;1.73;;;;;;;3.13;79.52;99878.47;4880816;29;20025;-70
2022/10/30 05:35:35;;;;;;;1.63;1.00;;;;;;;3.19;77.63;99867.44;4880772;29;20433;-71
2022/10/30 05:38:03;;;;;;;1.80;1.10;;;;;;;3.23;77.55;99882.81;4880476;29;20470;-73
2022/10/30 05:40:32;;;;;;;2.57;1.50;;;;;;;3.26;77.67;99890.41;4880585;29;20293;-74
2022/10/30 05:42:58;;;;;;;1.57;0.90;;;;;;;3.18;76.41;99861.34;4881227;29;20265;-74
2022/10/30 05:45:24;;;;;;;2.90;1.23;;;;;;;3.18;76.51;99871.00;4875227;29;20266;-75
2022/10/30 05:48:01;;;;;;;1.53;1.10;;;;;;;3.34;76.04;99887.09;4854247;29;20098;-76
2022/10/30 05:50:29;;;;;;;4.60;1.30;;;;;;;3.34;76.10;99898.44;4861290;29;20386;-75
2022/10/30 05:52:59;;;;;;;1.50;1.40;;;;;;;3.25;75.33;99901.91;4862204;29;20754;-74
2022/10/30 05:55:25;;;;;;;1.50;1.30;;;;;;;3.28;74.75;99899.00;4861963;29;20081;-76
2022/10/30 05:57:58;;;;;;;4.53;1.80;;;;;;;3.20;74.70;99890.97;4861801;29;20274;-76
2022/10/30 06:00:32;;;;;;;3.93;1.70;;;;;;;3.20;74.49;99900.66;4861684;29;20033;-78
2022/10/30 06:03:27;;;;;;;2.50;0.90;;;;;;;3.21;74.41;99902.31;4842732;29;20282;-75
2022/10/30 06:06:01;;;;;;;1.07;0.97;;;;;;;3.15;73.99;99887.91;4856823;29;20620;-78
2022/10/30 06:08:31;;;;;;;5.77;2.10;;;;;;;3.13;73.53;99900.34;4844888;29;20281;-76
2022/10/30 06:11:08;;;;;;;2.90;1.20;;;;;;;2.98;74.61;99878.06;4860799;29;20294;-74
2022/10/30 06:13:33;;;;;;;2.93;1.30;;;;;;;3.13;73.41;99916.13;4861534;29;20291;-77
2022/10/30 06:15:59;;;;;;;1.90;1.23;;;;;;;3.13;73.38;99905.63;4845394;29;20270;-74
2022/10/30 06:18:24;;;;;;;1.97;0.97;;;;;;;3.18;72.02;99913.97;4861705;29;20057;-74
2022/10/30 06:20:50;;;;;;;2.30;1.40;;;;;;;3.19;72.79;99920.88;4861366;29;20037;-76
2022/10/30 06:23:15;;;;;;;2.57;1.50;;;;;;;3.17;72.01;99927.22;4861878;29;20030;-78
2022/10/30 06:25:41;;;;;;;1.80;1.33;;;;;;;3.14;71.53;99933.59;4862048;29;20033;-77
2022/10/30 06:28:09;;;;;;;2.80;1.87;;;;;;;3.24;72.15;99926.56;4861340;29;20049;-74
2022/10/30 06:30:34;;;;;;;4.47;2.77;;;;;;;3.29;70.97;99926.97;4861857;29;20033;-75
2022/10/30 06:33:02;;;;;;;3.80;1.50;;;;;;;3.39;71.78;99929.63;4861424;29;20266;-74
2022/10/30 06:35:28;;;;;;;1.20;1.03;;;;;;;3.43;71.37;99936.28;4861438;29;20401;-76
2022/10/30 06:37:55;;;;;;;3.57;1.27;;;;;;;3.25;70.38;99920.34;4861163;29;20281;-79
2022/10/30 06:40:22;;;;;;;1.47;1.20;;;;;;;3.27;70.33;99922.81;4861312;29;20459;-75
2022/10/30 06:42:51;;;;;;;3.93;1.30;;;;;;;3.24;70.22;99929.19;4860023;29;20762;-77
2022/10/30 06:45:19;;;;;;;2.87;2.57;;;;;;;3.20;69.21;99951.50;4861309;29;20262;-75
2022/10/30 06:47:44;;;;;;;1.80;1.50;;;;;;;3.26;69.02;99942.22;4861222;29;20380;-74
2022/10/30 06:50:13;;;;;;;1.20;1.10;;;;;;;3.24;68.93;99933.63;4861368;29;20717;-71
2022/10/30 06:52:39;;;;;;;3.55;2.10;;;;;;;3.20;68.60;99954.13;4860722;29;20132;-70
2022/10/30 06:55:06;;;;;;;1.73;1.30;;;;;;;3.23;68.21;99931.97;4860548;29;20037;-72
2022/10/30 06:57:31;;;;;;;1.83;1.10;;;;;;;3.19;68.01;99922.69;4860681;29;20025;-71
2022/10/30 06:59:57;;;;;;;1.60;1.30;;;;;;;3.19;67.75;99931.41;4861052;29;20386;-76
2022/10/30 07:02:23;;;;;;;1.27;1.17;;;;;;;3.23;68.45;99945.94;4860535;29;20037;-75
2022/10/30 07:04:48;;;;;;;1.87;1.77;;;;;;;3.25;68.19;99933.50;4860732;29;20033;-72
2022/10/30 07:07:14;;;;;;;2.43;1.30;;;;;;;3.21;68.52;99933.91;4860497;29;20066;-75
2022/10/30 07:09:40;;;;;;;1.30;1.20;;;;;;;3.23;66.73;99958.28;4860336;29;20033;-73
2022/10/30 07:12:07;;;;;;;2.47;1.30;;;;;;;3.30;66.91;99957.59;4860719;29;20342;-70
2022/10/30 07:14:33;;;;;;;3.10;1.40;;;;;;;3.30;67.32;99959.41;4862779;29;20038;-75
2022/10/30 07:16:59;;;;;;;1.30;1.20;;;;;;;3.15;66.84;99914.19;4848023;29;20266;-73
2022/10/30 07:19:24;;;;;;;2.30;1.50;;;;;;;3.29;67.53;99942.78;4863120;29;20298;-73
2022/10/30 07:21:50;;;;;;;4.20;1.83;;;;;;;3.30;66.79;99947.06;4862545;29;20035;-70
2022/10/30 07:24:16;;;;;;;4.10;1.37;;;;;;;3.28;66.10;99959.53;4860536;29;20064;-76
2022/10/30 07:26:41;;;;;;;4.20;1.10;;;;;;;3.33;66.28;99952.06;4843996;29;20037;-73
2022/10/30 07:29:07;;;;;;;3.67;1.50;;;;;;;3.29;66.22;99953.31;4860622;29;20546;-73
2022/10/30 07:31:32;;;;;;;2.30;1.73;;;;;;;3.28;65.45;99946.38;4860711;29;20041;-74
2022/10/30 07:33:58;;;;;;;1.70;1.20;;;;;;;3.36;65.24;99970.22;4860739;29;20037;-77
2022/10/30 07:36:23;;;;;;;1.30;1.17;;;;;;;3.34;65.88;99961.63;4861391;29;20118;-78
2022/10/30 07:38:50;;;;;;;4.57;1.47;;;;;;;3.40;66.04;99978.66;4861127;29;20482;-74
2022/10/30 07:41:19;;;;;;;2.20;1.40;;;;;;;3.37;64.85;99979.75;4861380;29;20509;-76
2022/10/30 07:43:46;;;;;;;1.40;1.10;;;;;;;3.33;64.76;99967.84;4860796;29;20616;-77
2022/10/30 07:46:13;;;;;;;3.63;1.53;;;;;;;3.42;64.46;99977.56;4861872;29;20715;-74
2022/10/30 07:48:38;;;;;;;4.57;1.80;;;;;;;3.52;64.82;99989.91;4863619;29;20270;-72
2022/10/30 07:51:04;;;;;;;3.13;1.20;;;;;;;3.60;63.75;99987.44;4864470;29;20276;-71
2022/10/30 07:53:30;;;;;;;2.60;1.27;;;;;;;3.63;63.87;99981.88;4863858;29;20038;-75
2022/10/30 07:55:56;;;;;;;2.27;1.10;;;;;;;3.69;62.29;99992.69;4859461;29;20810;-74
2022/10/30 07:58:21;;;;;;;3.03;1.77;;;;;;;3.82;61.94;99974.00;4844476;29;20037;-73
2022/10/30 08:00:47;;;;;;;1.50;1.40;;;;;;;3.96;61.22;99984.09;4860404;29;20037;-74
2022/10/30 08:03:13;;;;;;;2.40;1.57;;;;;;;3.85;60.81;99997.44;4859873;29;20178;-75
2022/10/30 08:05:41;;;;;;;1.40;1.30;;;;;;;3.71;60.93;99995.19;4860260;29;20030;-75
2022/10/30 08:08:10;;;;;;;2.70;1.37;;;;;;;3.64;60.92;99994.91;4860285;29;20282;-75
2022/10/30 08:10:36;;;;;;;3.13;1.47;;;;;;;3.62;60.68;99996.03;4843752;29;20601;-74
2022/10/30 08:13:03;;;;;;;7.90;3.10;;;;;;;3.67;61.02;99999.06;4860535;29;20474;-75
2022/10/30 08:15:28;;;;;;;1.77;1.40;;;;;;;3.67;60.37;99991.16;4859586;29;20293;-75
2022/10/30 08:17:55;;;;;;;3.40;2.10;;;;;;;3.72;59.32;100002.13;4860601;29;20262;-75
2022/10/30 08:20:27;;;;;;;3.53;1.97;;;;;;;3.71;59.26;99995.19;4858516;29;20485;-75
2022/10/30 08:22:56;;;;;;;6.53;1.60;;;;;;;3.65;59.06;99987.84;4841781;29;20708;-77
2022/10/30 08:25:27;;;;;;;7.13;2.90;;;;;;;3.58;59.04;99999.91;4842820;29;20305;-75
2022/10/30 08:28:01;;;;;;;4.30;2.10;;;;;;;3.76;60.03;100014.06;4863465;29;20273;-76
2022/10/30 08:30:33;;;;;;;1.40;1.00;;;;;;;3.76;59.59;100000.91;4861237;29;20305;-76
2022/10/30 08:33:00;;;;;;;1.93;1.60;;;;;;;3.85;58.95;100065.91;4846672;29;20372;-76
2022/10/30 08:35:32;;;;;;;3.00;1.57;;;;;;;3.76;59.53;100018.47;4845828;29;20777;-76
2022/10/30 08:38:01;;;;;;;1.50;1.30;;;;;;;3.62;59.27;100025.81;4862096;29;20274;-76
2022/10/30 08:40:27;;;;;;;1.73;1.63;;;;;;;3.65;58.11;100003.66;4866759;29;20289;-76
2022/10/30 08:42:55;;;;;;;2.00;1.20;;;;;;;3.78;58.32;100022.66;4865411;29;20277;-77
2022/10/30 08:45:21;;;;;;;2.93;1.20;;;;;;;3.77;58.59;100022.81;4864277;29;20069;-76
2022/10/30 08:47:47;;;;;;;4.23;1.40;;;;;;;3.84;58.54;100037.09;4864094;29;20282;-76
2022/10/30 08:50:13;;;;;;;3.07;1.27;;;;;;;3.80;57.67;100031.25;4864072;29;20321;-76
2022/10/30 08:52:44;;;;;;;1.53;1.17;;;;;;;3.80;56.05;100041.78;4863745;29;20409;-75
2022/10/30 08:55:10;;;;;;;1.43;1.27;;;;;;;3.75;56.95;100017.63;4863710;29;20270;-76
2022/10/30 08:57:36;;;;;;;3.70;1.50;;;;;;;4.07;56.86;100032.38;4863057;29;20453;-77
2022/10/30 09:00:03;;;;;;;1.80;1.10;;;;;;;4.34;54.76;100035.16;4863168;29;20037;-76
2022/10/30 09:02:29;;;;;;;1.38;1.20;;;;;;;4.48;53.88;100053.16;4862952;29;20274;-73
2022/10/30 09:04:55;;;;;;;1.40;1.30;;;;;;;4.49;53.66;100044.28;4861257;29;20029;-70
2022/10/30 09:07:20;;;;;;;1.40;1.27;;;;;;;4.57;53.56;100057.56;4862898;29;20049;-77
2022/10/30 09:09:47;;;;;;;4.97;2.20;;;;;;;4.49;53.12;100062.72;4859971;29;20046;-74
2022/10/30 09:12:15;;;;;;;1.20;1.10;;;;;;;4.61;51.96;100050.22;4843895;29;20227;-76
2022/10/30 09:14:40;;;;;;;3.00;1.53;;;;;;;4.68;51.89;100066.31;4843929;29;20283;-73
2022/10/30 09:17:06;;;;;;;1.10;0.97;;;;;;;4.59;50.08;100074.09;4844259;29;20392;-73
2022/10/30 09:19:31;;;;;;;2.40;1.33;;;;;;;4.57;50.38;100062.84;4844220;29;20040;-73
2022/10/30 09:21:56;;;;;;;2.03;1.03;;;;;;;4.56;50.78;100082.28;4827434;29;20045;-75
2022/10/30 09:24:22;;;;;;;2.03;1.67;;;;;;;4.43;51.05;100065.94;4827725;29;20109;-73
2022/10/30 09:26:47;;;;;;;3.10;1.70;;;;;;;4.31;51.16;100067.03;4843922;29;20038;-74
2022/10/30 09:29:13;;;;;;;5.37;1.53;;;;;;;4.25;50.44;100078.97;4843941;29;20483;-72
2022/10/30 09:31:38;;;;;;;2.30;1.10;;;;;;;4.19;50.04;100090.06;4844553;29;20033;-74
2022/10/30 09:34:04;;;;;;;1.33;1.20;;;;;;;4.23;50.99;100085.34;4844407;29;20065;-73
2022/10/30 09:36:31;;;;;;;2.17;1.10;;;;;;;4.30;51.31;100092.56;4843904;29;20133;-76
2022/10/30 09:38:57;;;;;;;1.63;1.20;;;;;;;4.42;51.56;100090.63;4843303;29;20073;-75
2022/10/30 09:41:38;;;;;;;1.53;1.30;;;;;;;4.54;51.44;100094.78;4844306;29;20782;-74
2022/10/30 09:44:36;;;;;;;1.50;1.40;;;;;;;4.46;49.96;100097.28;4843768;29;20094;-73
2022/10/30 09:47:49;;;;;;;4.30;1.13;;;;;;;4.43;50.43;100112.56;4824688;29;20287;-76
2022/10/30 09:50:34;;;;;;;3.13;1.60;;;;;;;4.42;51.04;100101.19;4809772;29;20264;-77
2022/10/30 09:53:21;;;;;;;3.27;1.43;;;;;;;4.43;49.06;100112.56;4843507;29;20328;-74
2022/10/30 09:56:03;;;;;;;2.40;1.20;;;;;;;4.38;49.69;100117.44;4843944;29;20267;-74
2022/10/30 09:58:53;;;;;;;3.47;1.17;;;;;;;4.65;48.47;100123.66;4843269;29;20342;-75
2022/10/30 10:01:59;;;;;;;2.47;1.20;;;;;;;4.62;48.51;100121.28;4843441;29;20278;-74
2022/10/30 10:04:32;;;;;;;4.77;1.40;;;;;;;4.54;48.69;100125.59;4843451;29;20263;-74
2022/10/30 10:07:06;;;;;;;2.20;1.07;;;;;;;4.31;47.89;100136.41;4843215;29;20367;-75
2022/10/30 10:09:36;;;;;;;3.33;1.17;;;;;;;4.39;49.25;100106.75;4843181;29;20269;-74
2022/10/30 10:12:25;;;;;;;1.80;1.13;;;;;;;4.37;48.79;100148.22;4843465;29;20285;-74
2022/10/30 10:14:54;;;;;;;1.30;1.20;;;;;;;4.04;48.69;100078.25;4843493;29;20267;-74
2022/10/30 10:17:46;;;;;;;3.63;1.23;;;;;;;4.35;48.74;100158.91;4826982;29;20030;-75
2022/10/30 10:20:24;;;;;;;1.40;1.23;;;;;;;4.34;47.55;100136.16;4840714;29;20383;-76
2022/10/30 10:22:50;;;;;;;4.53;2.70;;;;;;;4.37;47.44;100127.13;4843542;29;20263;-76
2022/10/30 10:25:18;;;;;;;2.17;1.97;;;;;;;4.60;47.12;100146.13;4847134;29;20263;-75
2022/10/30 10:27:51;;;;;;;7.00;2.42;;;;;;;4.94;47.72;100143.91;4849237;29;20037;-74
2022/10/30 10:30:29;;;;;;;4.67;3.03;;;;;;;4.85;46.30;100135.00;4845676;29;20094;-76
2022/10/30 10:33:03;;;;;;;1.83;1.63;;;;;;;4.71;46.48;100147.81;4827756;29;20357;-74
2022/10/30 10:35:35;;;;;;;6.90;4.93;;;;;;;4.59;46.85;100149.75;4842875;29;20346;-75
2022/10/30 10:38:11;;;;;;;3.13;2.00;;;;;;;4.51;47.26;100168.91;4842725;29;20277;-74
2022/10/30 10:41:01;;;;;;;1.40;1.30;;;;;;;4.48;46.43;100153.34;4842458;29;20291;-74
2022/10/30 10:43:45;;;;;;;1.83;1.20;;;;;;;4.43;45.89;100158.22;4843017;29;20270;-74
2022/10/30 10:46:42;;;;;;;2.23;1.03;;;;;;;4.51;47.63;100171.53;4842501;29;20770;-74
2022/10/30 10:49:29;;;;;;;3.07;1.40;;;;;;;4.48;45.27;100166.53;4842609;29;20735;-75
2022/10/30 10:52:04;;;;;;;3.10;1.03;;;;;;;4.33;46.72;100145.00;4842420;29;20270;-74
2022/10/30 10:55:03;;;;;;;2.73;0.93;;;;;;;4.38;46.27;100167.50;4842780;29;20306;-74
2022/10/30 10:57:37;;;;;;;0.93;0.90;;;;;;;4.36;46.22;100170.28;4842505;29;20673;-75
2022/10/30 11:00:12;;;;;;;2.43;1.67;;;;;;;4.40;45.70;100191.94;4842548;29;20303;-74
2022/10/30 11:02:44;;;;;;;3.47;0.97;;;;;;;4.34;44.72;100162.53;4842789;29;20262;-75
2022/10/30 11:05:21;;;;;;;3.07;1.23;;;;;;;4.39;45.76;100180.56;4843936;29;20282;-74
2022/10/30 11:07:49;;;;;;;4.10;1.00;;;;;;;4.32;45.83;100180.25;4845311;29;20291;-74
2022/10/30 11:10:18;;;;;;;2.88;1.13;;;;;;;4.39;46.24;100175.28;4842846;29;20290;-76
2022/10/30 11:12:46;;;;;;;3.77;1.30;;;;;;;4.40;46.97;100186.66;4842684;29;20042;-75
2022/10/30 11:15:30;;;;;;;1.43;1.03;;;;;;;4.32;45.40;100163.59;4842876;29;20293;-77
2022/10/30 11:18:07;;;;;;;4.87;1.40;;;;;;;4.40;45.93;100198.03;4843163;29;20259;-73
2022/10/30 11:20:51;;;;;;;2.47;1.30;;;;;;;4.42;46.81;100175.00;4842372;29;20758;-74
2022/10/30 11:23:33;;;;;;;2.53;1.50;;;;;;;4.41;46.52;100178.63;4842467;29;20428;-77
2022/10/30 11:26:00;;;;;;;2.03;1.10;;;;;;;4.42;46.26;100201.38;4842096;29;20279;-74
2022/10/30 11:28:40;;;;;;;1.43;1.33;;;;;;;4.43;46.04;100196.94;4842211;29;20292;-75
2022/10/30 11:31:22;;;;;;;4.60;1.37;;;;;;;4.39;46.53;100191.09;4842240;29;20271;-74
2022/10/30 11:33:49;;;;;;;2.13;1.27;;;;;;;4.42;47.23;100217.19;4843277;29;20768;-74
2022/10/30 11:36:18;;;;;;;2.93;1.20;;;;;;;4.40;46.20;100194.56;4826131;29;20268;-74
2022/10/30 11:38:44;;;;;;;2.90;1.00;;;;;;;4.22;46.97;100181.22;4842289;29;20274;-74
2022/10/30 11:41:10;;;;;;;6.13;1.60;;;;;;;4.36;45.33;100212.47;4842366;29;20082;-74
2022/10/30 11:43:38;;;;;;;4.63;1.60;;;;;;;4.22;45.69;100183.84;4840965;29;20270;-73
2022/10/30 11:46:09;;;;;;;1.70;1.33;;;;;;;4.40;46.60;100205.94;4842036;29;20348;-74
2022/10/30 11:48:42;;;;;;;1.97;1.27;;;;;;;4.27;46.11;100195.66;4842189;29;20044;-73
2022/10/30 11:51:09;;;;;;;2.80;1.07;;;;;;;4.30;46.14;100216.47;4845736;29;20274;-73